Time;durP1;ratioP1;P1;durP2;ratioP2;P2;SDS_P1;SDS_P2;PMS_P1;PMS_P2;Temp;Humidity;BMP_temperature;BMP_pressure;BME280_temperature;BME280_humidity;BME280_pressure;Samples;Min_cycle;Max_cycle;Signal;HPM_P1;HPM_P2
2022/07/04 00:01:27;;;;;;;8.65;7.83;;;;;;;19.79;74.94;99968.84;1777492;79;21053;-74
2022/07/04 00:03:53;;;;;;;8.05;7.25;;;;;;;19.74;74.99;99973.56;1785215;80;21502;-76
2022/07/04 00:06:20;;;;;;;10.40;7.10;;;;;;;19.70;75.09;99972.34;1777832;79;21211;-75
2022/07/04 00:08:47;;;;;;;8.10;7.30;;;;;;;19.64;75.21;99973.20;1756870;79;20994;-76
2022/07/04 00:11:17;;;;;;;10.60;7.15;;;;;;;19.61;75.41;99975.01;1772713;80;21576;-76
2022/07/04 00:13:43;;;;;;;9.00;6.42;;;;;;;19.62;75.64;99972.09;1773000;80;21086;-75
2022/07/04 00:16:12;;;;;;;8.03;7.22;;;;;;;19.69;75.27;99972.02;1772946;80;21001;-75
2022/07/04 00:18:39;;;;;;;12.43;7.80;;;;;;;19.63;75.35;99972.38;1771526;80;21756;-73
2022/07/04 00:21:06;;;;;;;10.50;6.95;;;;;;;19.57;75.26;99974.62;1771234;80;20997;-73
2022/07/04 00:23:32;;;;;;;10.55;6.85;;;;;;;19.57;75.21;99979.20;1757659;79;21025;-74
2022/07/04 00:25:59;;;;;;;7.53;6.75;;;;;;;19.56;75.23;99976.19;1769145;79;21067;-75
2022/07/04 00:28:26;;;;;;;10.72;6.80;;;;;;;19.54;75.41;99974.23;1775651;79;21028;-74
2022/07/04 00:30:52;;;;;;;8.70;7.60;;;;;;;19.52;75.59;99966.37;1773790;79;21251;-76
2022/07/04 00:33:19;;;;;;;9.08;6.72;;;;;;;19.57;75.49;99972.46;1772835;79;21036;-75
2022/07/04 00:35:45;;;;;;;9.83;7.03;;;;;;;19.67;75.20;99976.00;1774225;80;21113;-75
2022/07/04 00:38:12;;;;;;;10.48;7.40;;;;;;;19.68;75.04;99977.09;1764915;80;21053;-76
2022/07/04 00:40:41;;;;;;;8.75;7.05;;;;;;;19.66;74.74;99973.80;1754377;79;21084;-77
2022/07/04 00:43:07;;;;;;;10.75;7.78;;;;;;;19.63;74.73;99964.83;1770146;79;21572;-79
2022/07/04 00:45:34;;;;;;;9.93;8.00;;;;;;;19.62;74.67;99970.75;1741756;81;21009;-78
2022/07/04 00:48:01;;;;;;;9.93;7.47;;;;;;;19.61;74.52;99979.87;1772299;79;21041;-79
2022/07/04 00:50:27;;;;;;;9.23;7.42;;;;;;;19.58;74.65;99973.56;1774549;79;21092;-78
2022/07/04 00:52:53;;;;;;;8.95;7.47;;;;;;;19.62;74.45;99970.75;1792504;79;21032;-76
2022/07/04 00:55:22;;;;;;;9.63;7.45;;;;;;;19.70;74.27;99970.98;1779437;80;21175;-78
2022/07/04 00:57:49;;;;;;;8.18;7.37;;;;;;;19.68;74.26;99970.89;1747620;80;21029;-77
2022/07/04 01:00:18;;;;;;;8.58;7.58;;;;;;;19.66;74.17;99971.11;1758588;80;21049;-78
2022/07/04 01:02:46;;;;;;;8.45;7.33;;;;;;;19.65;74.17;99974.86;1762122;79;21088;-77
2022/07/04 01:05:14;;;;;;;9.20;7.35;;;;;;;19.62;74.27;99969.91;1791711;78;20985;-77
2022/07/04 01:07:40;;;;;;;10.25;7.80;;;;;;;19.60;74.26;99973.34;1763421;80;21134;-76
2022/07/04 01:10:08;;;;;;;7.53;6.72;;;;;;;19.63;74.26;99971.56;1777461;78;21042;-75
2022/07/04 01:12:34;;;;;;;10.10;7.75;;;;;;;19.71;74.10;99973.97;1767007;80;21545;-76
2022/07/04 01:15:01;;;;;;;10.32;7.35;;;;;;;19.69;74.34;99973.90;1795247;78;21516;-76
2022/07/04 01:17:27;;;;;;;8.65;7.50;;;;;;;19.64;74.41;99968.66;1778661;80;21050;-78
2022/07/04 01:19:54;;;;;;;10.13;8.13;;;;;;;19.61;74.30;99965.05;1813734;77;21088;-78
2022/07/04 01:22:21;;;;;;;10.15;7.62;;;;;;;19.59;74.19;99959.59;1800212;78;21103;-79
2022/07/04 01:24:49;;;;;;;8.08;6.50;;;;;;;19.56;74.20;99967.57;1797026;78;21005;-78
2022/07/04 01:27:16;;;;;;;9.48;7.05;;;;;;;19.60;74.22;99964.73;1791376;79;21589;-80
2022/07/04 01:29:42;;;;;;;9.15;7.33;;;;;;;19.68;73.97;99958.77;1779665;79;21017;-78
2022/07/04 01:32:09;;;;;;;8.70;7.60;;;;;;;19.67;73.90;99958.48;1819231;78;21092;-78
2022/07/04 01:34:38;;;;;;;8.10;7.30;;;;;;;19.62;73.94;99958.62;1803674;78;21088;-77
2022/07/04 01:37:05;;;;;;;10.35;7.40;;;;;;;19.60;73.75;99955.30;1809794;78;21564;-80
2022/07/04 01:39:32;;;;;;;10.80;7.50;;;;;;;19.58;74.04;99963.31;1808727;78;21081;-77
2022/07/04 01:41:59;;;;;;;7.92;7.22;;;;;;;19.54;74.19;99962.11;1776925;80;21040;-79
2022/07/04 01:44:25;;;;;;;8.65;7.35;;;;;;;19.55;74.26;99961.08;1811845;78;21182;-77
2022/07/04 01:46:52;;;;;;;10.20;7.87;;;;;;;19.57;74.03;99964.38;1796293;78;21966;-77
2022/07/04 01:49:18;;;;;;;9.60;7.05;;;;;;;19.54;73.93;99965.63;1778491;79;21041;-76
2022/07/04 01:51:50;;;;;;;9.98;7.40;;;;;;;19.52;73.91;99964.20;1785716;79;21022;-76
2022/07/04 01:54:16;;;;;;;8.28;7.05;;;;;;;19.51;73.72;99967.43;1821342;78;20997;-76
2022/07/04 01:56:43;;;;;;;8.80;7.92;;;;;;;19.51;73.69;99970.63;1818499;78;21276;-78
2022/07/04 01:59:09;;;;;;;9.98;8.23;;;;;;;19.50;71.92;99974.38;1795526;78;21017;-77
2022/07/04 02:01:37;;;;;;;10.30;8.75;;;;;;;19.54;71.23;99976.93;1775316;80;21054;-77
2022/07/04 02:04:04;;;;;;;8.80;7.30;;;;;;;19.58;71.18;99966.01;1792304;78;21501;-78
2022/07/04 02:06:31;;;;;;;12.03;7.78;;;;;;;19.61;70.65;99966.92;1760088;80;21104;-79
2022/07/04 02:09:15;;;;;;;13.30;8.55;;;;;;;19.62;70.30;99968.06;1746465;80;21476;-78
2022/07/04 02:14:31;;;;;;;10.38;7.70;;;;;;;19.70;70.46;99979.58;1745854;80;21060;-79
2022/07/04 02:16:58;;;;;;;9.48;8.48;;;;;;;19.79;70.06;99971.01;1761313;81;21560;-77
2022/07/04 02:19:25;;;;;;;14.40;9.20;;;;;;;19.76;69.93;99976.86;1762360;81;21095;-75
2022/07/04 02:21:52;;;;;;;10.43;8.68;;;;;;;19.74;70.22;99976.77;1758944;80;21131;-76
2022/07/04 02:24:19;;;;;;;13.93;9.03;;;;;;;19.70;69.70;99983.11;1759989;81;21033;-77
2022/07/04 02:26:47;;;;;;;10.85;7.90;;;;;;;19.70;69.57;99983.11;1757870;80;21093;-76
2022/07/04 02:29:14;;;;;;;10.32;8.10;;;;;;;19.69;69.30;99981.45;1744366;81;21072;-74
2022/07/04 02:31:41;;;;;;;10.03;7.83;;;;;;;19.71;69.54;99979.89;1759790;80;21036;-75
2022/07/04 02:34:07;;;;;;;9.63;8.60;;;;;;;19.71;70.02;99980.70;1762733;80;21191;-76
2022/07/04 02:36:34;;;;;;;10.28;8.70;;;;;;;19.71;69.88;99978.55;1784165;78;21504;-75
2022/07/04 02:39:01;;;;;;;10.75;8.68;;;;;;;19.68;69.94;99977.09;1787746;80;21559;-75
2022/07/04 02:41:28;;;;;;;10.95;8.15;;;;;;;19.73;69.95;99984.03;1759462;81;21009;-76
2022/07/04 02:43:54;;;;;;;9.28;8.38;;;;;;;19.79;69.71;99980.44;1754753;81;21485;-76
2022/07/04 02:46:21;;;;;;;9.93;8.08;;;;;;;19.78;69.80;99980.16;1741350;80;21268;-78
2022/07/04 02:48:47;;;;;;;10.82;8.73;;;;;;;19.78;69.89;99988.24;1758789;81;21076;-76
2022/07/04 02:51:14;;;;;;;10.03;8.80;;;;;;;19.78;69.94;99979.31;1763195;80;21053;-77
2022/07/04 02:53:40;;;;;;;11.05;8.43;;;;;;;19.78;70.41;99982.01;1750204;81;20982;-74
2022/07/04 02:56:07;;;;;;;9.65;8.65;;;;;;;19.74;70.19;99983.00;1731887;82;21638;-76
2022/07/04 02:58:33;;;;;;;9.35;8.40;;;;;;;19.73;70.35;99985.37;1757847;81;21474;-75
2022/07/04 03:01:00;;;;;;;11.75;8.73;;;;;;;19.72;70.47;99982.41;1757699;81;20982;-73
2022/07/04 03:03:27;;;;;;;11.65;8.13;;;;;;;19.70;70.32;99979.08;1785699;80;21318;-77
2022/07/04 03:05:53;;;;;;;10.53;8.53;;;;;;;19.76;70.31;99978.20;1755500;79;21038;-76
2022/07/04 03:08:20;;;;;;;12.28;7.75;;;;;;;19.86;70.16;99974.16;1793508;79;21043;-76
2022/07/04 03:10:49;;;;;;;12.00;8.43;;;;;;;19.87;70.35;99972.59;1796633;78;21206;-75
2022/07/04 03:13:15;;;;;;;12.50;9.10;;;;;;;19.89;70.59;99976.41;1742113;80;21020;-78
2022/07/04 03:15:42;;;;;;;11.83;8.53;;;;;;;19.87;70.77;99987.41;1783260;80;21037;-78
2022/07/04 03:18:09;;;;;;;12.93;7.90;;;;;;;19.84;70.80;99987.34;1803118;78;21295;-76
2022/07/04 03:20:35;;;;;;;11.28;8.20;;;;;;;19.83;70.80;99990.26;1782962;80;21050;-77
2022/07/04 03:23:03;;;;;;;9.25;8.35;;;;;;;19.82;70.91;99991.33;1765317;80;21639;-77
2022/07/04 03:25:30;;;;;;;9.65;7.72;;;;;;;19.80;70.89;99991.54;1772705;80;21034;-76
2022/07/04 03:27:59;;;;;;;9.03;7.92;;;;;;;19.93;70.41;99988.39;1762540;80;21001;-77
2022/07/04 03:30:26;;;;;;;9.75;7.80;;;;;;;20.02;70.13;99988.41;1807286;79;21062;-78
2022/07/04 03:32:52;;;;;;;9.13;8.23;;;;;;;20.05;70.54;99985.28;1804933;79;21628;-75
2022/07/04 03:35:20;;;;;;;9.53;7.65;;;;;;;20.09;70.31;99988.32;1769267;79;21913;-77
2022/07/04 03:37:47;;;;;;;8.85;7.97;;;;;;;20.12;70.33;99987.88;1778029;78;21026;-76
2022/07/04 03:40:13;;;;;;;13.25;8.23;;;;;;;20.14;70.17;99981.20;1796559;78;21304;-75
2022/07/04 03:42:40;;;;;;;13.85;7.65;;;;;;;20.19;69.66;99982.72;1768627;80;21046;-76
2022/07/04 03:45:07;;;;;;;11.38;7.70;;;;;;;20.26;69.85;99985.85;1788752;78;21014;-77
2022/07/04 03:47:35;;;;;;;8.68;7.78;;;;;;;20.32;69.95;99988.98;1810092;78;21168;-78
2022/07/04 03:50:04;;;;;;;9.43;7.25;;;;;;;20.36;68.98;99986.17;1812499;78;21021;-78
2022/07/04 03:52:31;;;;;;;10.23;8.75;;;;;;;20.41;68.86;99978.20;1816435;78;21065;-78
2022/07/04 03:54:58;;;;;;;17.70;8.55;;;;;;;20.45;69.28;99979.39;1782778;80;21549;-77
2022/07/04 03:57:25;;;;;;;11.45;8.05;;;;;;;20.48;68.93;99980.30;1798659;78;21551;-78
2022/07/04 03:59:51;;;;;;;10.45;7.78;;;;;;;20.53;68.69;99985.84;1783769;78;21246;-77
2022/07/04 04:02:18;;;;;;;11.70;7.47;;;;;;;20.57;68.76;99980.28;1781674;79;21057;-77
2022/07/04 04:07:29;;;;;;;12.33;7.33;;;;;;;20.70;68.04;99971.73;1782958;80;21054;-79
2022/07/04 04:09:56;;;;;;;10.20;8.05;;;;;;;20.75;67.29;99968.64;1763737;80;21052;-76
2022/07/04 04:12:23;;;;;;;9.98;7.78;;;;;;;20.83;67.84;99970.73;1812052;77;21527;-79
2022/07/04 04:14:50;;;;;;;13.50;8.45;;;;;;;20.89;67.53;99969.27;1796361;78;21009;-79
2022/07/04 04:17:17;;;;;;;8.93;7.40;;;;;;;20.96;67.50;99963.25;1782346;78;21044;-78
2022/07/04 04:19:43;;;;;;;9.13;7.85;;;;;;;21.05;67.34;99965.07;1778824;78;21368;-78
2022/07/04 04:22:10;;;;;;;11.95;7.65;;;;;;;21.14;67.40;99967.73;1787621;78;21017;-77
2022/07/04 04:24:36;;;;;;;10.32;7.40;;;;;;;21.21;66.70;99961.71;1777477;80;21069;-76
2022/07/04 04:27:04;;;;;;;8.85;6.60;;;;;;;21.30;65.39;99966.77;1788863;79;21005;-76
2022/07/04 04:29:31;;;;;;;8.33;6.80;;;;;;;21.36;64.27;99961.77;1772255;79;22093;-78
2022/07/04 04:31:57;;;;;;;12.33;7.30;;;;;;;21.44;64.80;99968.74;1790639;80;21081;-79
2022/07/04 04:34:23;;;;;;;17.23;7.83;;;;;;;21.51;64.35;99967.57;1784256;80;21060;-78
2022/07/04 04:36:50;;;;;;;10.60;7.42;;;;;;;21.62;64.25;99965.94;1783195;80;21582;-76
2022/07/04 04:39:16;;;;;;;13.55;7.58;;;;;;;21.76;64.17;99964.63;1789727;80;21050;-79
2022/07/04 04:41:43;;;;;;;22.40;9.08;;;;;;;21.90;64.32;99961.14;1821200;78;21239;-80
2022/07/04 04:44:12;;;;;;;13.75;8.05;;;;;;;22.04;63.74;99959.53;1749912;80;21100;-79
2022/07/04 04:46:39;;;;;;;22.07;7.78;;;;;;;22.16;62.82;99963.86;1774960;79;21048;-79
2022/07/04 04:49:05;;;;;;;18.50;8.58;;;;;;;22.27;62.31;99965.45;1793965;79;21115;-79
2022/07/04 04:51:33;;;;;;;12.75;8.50;;;;;;;22.37;62.65;99962.43;1773109;79;21044;-79
2022/07/04 04:53:59;;;;;;;19.40;9.05;;;;;;;22.52;62.19;99967.84;1773462;79;21060;-79
2022/07/04 04:56:26;;;;;;;15.72;8.48;;;;;;;22.64;61.90;99964.56;1799954;79;20989;-78
2022/07/04 04:58:53;;;;;;;14.25;8.05;;;;;;;22.77;62.19;99958.86;1819925;78;21154;-77
2022/07/04 05:01:19;;;;;;;18.32;8.60;;;;;;;22.89;61.64;99964.72;1811029;78;21311;-79
2022/07/04 05:03:46;;;;;;;16.48;8.78;;;;;;;22.99;61.59;99969.52;1812719;78;21051;-80
2022/07/04 05:06:12;;;;;;;12.18;7.47;;;;;;;23.10;60.65;99971.34;1820087;78;20994;-79
2022/07/04 05:08:41;;;;;;;12.45;8.83;;;;;;;23.13;60.82;99968.16;1819462;78;21005;-78
2022/07/04 05:11:07;;;;;;;12.15;7.58;;;;;;;23.16;60.71;99970.39;1796133;78;21161;-79
2022/07/04 05:13:34;;;;;;;11.80;8.15;;;;;;;23.18;60.78;99972.32;1805737;78;22098;-81
2022/07/04 05:16:01;;;;;;;10.90;7.05;;;;;;;23.18;59.83;99962.83;1779852;80;21069;-79
2022/07/04 05:18:27;;;;;;;8.83;6.95;;;;;;;23.18;59.65;99962.83;1817568;78;21049;-78
2022/07/04 05:20:54;;;;;;;10.28;6.55;;;;;;;23.21;59.23;99958.80;1815697;78;21112;-79
2022/07/04 05:23:21;;;;;;;9.98;6.55;;;;;;;23.26;59.00;99955.64;1795172;80;21027;-79
2022/07/04 05:25:48;;;;;;;11.97;7.62;;;;;;;23.39;58.91;99963.14;1827149;78;21870;-79
2022/07/04 05:28:14;;;;;;;9.48;7.17;;;;;;;23.52;58.38;99956.84;1814631;78;21567;-80
2022/07/04 05:30:42;;;;;;;9.00;7.17;;;;;;;23.68;58.17;99953.00;1788651;79;21012;-78
2022/07/04 05:33:08;;;;;;;13.00;8.40;;;;;;;23.78;58.55;99958.62;1814811;78;20990;-80
2022/07/04 05:35:35;;;;;;;11.38;7.55;;;;;;;23.87;57.69;99958.98;1815300;78;21644;-80
2022/07/04 05:38:02;;;;;;;13.03;7.25;;;;;;;23.94;57.84;99956.92;1807445;78;21208;-80
2022/07/04 05:40:28;;;;;;;11.68;6.78;;;;;;;23.99;57.33;99957.52;1792909;79;21010;-80
2022/07/04 05:42:56;;;;;;;9.70;6.87;;;;;;;24.01;57.42;99954.86;1770519;80;21035;-80
2022/07/04 05:45:23;;;;;;;10.20;7.15;;;;;;;24.06;56.91;99949.47;1792322;80;21060;-80
2022/07/04 05:47:49;;;;;;;19.80;9.48;;;;;;;24.13;57.69;99953.38;1800162;79;21049;-80
2022/07/04 05:50:16;;;;;;;10.75;7.58;;;;;;;24.13;56.45;99950.11;1794279;79;21220;-80
2022/07/04 05:52:42;;;;;;;11.65;7.28;;;;;;;24.12;56.47;99951.17;1797685;79;20942;-79
2022/07/04 05:55:10;;;;;;;9.68;7.37;;;;;;;24.16;56.70;99958.28;1799746;79;21044;-78
2022/07/04 05:57:37;;;;;;;9.80;6.65;;;;;;;24.20;56.40;99948.55;1788722;79;21005;-79
2022/07/04 06:00:05;;;;;;;9.45;6.42;;;;;;;24.25;56.43;99951.88;1800192;79;21675;-78
2022/07/04 06:02:32;;;;;;;9.60;6.33;;;;;;;24.30;56.77;99947.87;1798390;79;21129;-80
2022/07/04 06:04:58;;;;;;;6.67;5.95;;;;;;;24.40;57.02;99953.96;1807239;79;21061;-80
2022/07/04 06:07:25;;;;;;;9.20;6.58;;;;;;;24.47;55.87;99949.98;1828296;78;21029;-78
2022/07/04 06:09:53;;;;;;;9.00;6.80;;;;;;;24.54;55.31;99943.00;1803838;78;21272;-81
2022/07/04 06:12:20;;;;;;;9.68;6.87;;;;;;;24.64;55.03;99943.09;1793522;78;21042;-79
2022/07/04 06:14:47;;;;;;;10.88;7.10;;;;;;;24.72;55.50;99935.87;1767412;80;21230;-80
2022/07/04 06:17:14;;;;;;;11.15;6.97;;;;;;;24.80;54.86;99935.94;1813748;78;21105;-76
2022/07/04 06:19:41;;;;;;;8.70;7.60;;;;;;;24.88;54.67;99934.11;1796107;78;20991;-79
2022/07/04 06:22:07;;;;;;;7.53;6.53;;;;;;;24.97;54.76;99941.23;1798949;79;21032;-77
2022/07/04 06:24:34;;;;;;;8.93;7.45;;;;;;;25.06;55.42;99932.08;1821724;78;21037;-78
2022/07/04 06:27:03;;;;;;;10.15;7.42;;;;;;;25.14;55.31;99931.59;1795818;78;22152;-79
2022/07/04 06:29:29;;;;;;;10.95;6.97;;;;;;;25.22;54.98;99928.41;1791662;79;20959;-79
2022/07/04 06:31:56;;;;;;;6.97;5.87;;;;;;;25.28;53.59;99931.48;1825305;78;21017;-79
2022/07/04 06:37:07;;;;;;;9.33;7.28;;;;;;;25.28;53.71;99927.40;1826584;78;21022;-78
2022/07/04 06:39:34;;;;;;;8.33;6.67;;;;;;;25.30;54.13;99925.23;1830070;78;22101;-76
2022/07/04 06:42:02;;;;;;;9.35;6.75;;;;;;;25.35;53.61;99919.00;1821234;78;20981;-79
2022/07/04 06:44:28;;;;;;;7.87;6.00;;;;;;;25.43;53.57;99924.49;1762784;80;21028;-79
2022/07/04 06:46:55;;;;;;;7.05;6.35;;;;;;;25.51;53.55;99930.80;1777622;80;21004;-80
2022/07/04 06:49:21;;;;;;;7.75;6.65;;;;;;;25.56;52.73;99928.11;1776325;80;21065;-78
2022/07/04 06:51:48;;;;;;;6.85;5.30;;;;;;;25.59;52.60;99923.48;1780433;78;21774;-78
2022/07/04 06:54:15;;;;;;;8.38;6.25;;;;;;;25.61;52.04;99919.99;1790564;80;21044;-77
2022/07/04 06:56:42;;;;;;;9.35;6.22;;;;;;;25.58;52.24;99915.06;1790667;80;21044;-79
2022/07/04 06:59:09;;;;;;;8.70;6.35;;;;;;;25.58;52.60;99915.62;1777956;79;22373;-76
2022/07/04 07:01:37;;;;;;;9.38;6.15;;;;;;;25.59;52.73;99922.13;1798168;79;21081;-77
2022/07/04 07:04:03;;;;;;;6.03;5.40;;;;;;;25.59;52.10;99920.77;1794741;79;21126;-76
2022/07/04 07:06:30;;;;;;;8.85;5.67;;;;;;;25.54;52.20;99915.87;1785957;79;21002;-79
2022/07/04 07:08:56;;;;;;;7.00;5.67;;;;;;;25.54;52.57;99914.52;1758993;80;21021;-80
2022/07/04 07:11:23;;;;;;;8.80;6.62;;;;;;;25.56;52.36;99909.08;1755582;79;21041;-79
2022/07/04 07:13:54;;;;;;;7.22;6.30;;;;;;;25.56;52.71;99917.23;1762114;80;21052;-80
2022/07/04 07:16:19;;;;;;;8.35;6.20;;;;;;;25.58;52.69;99907.45;1786004;79;21454;-79
2022/07/04 07:18:46;;;;;;;10.40;5.97;;;;;;;25.63;53.26;99906.95;1748838;80;21080;-79
2022/07/04 07:22:50;;;;;;;7.85;5.60;;;;;;;25.73;52.71;99909.42;1876740;74;23352;-79
2022/07/04 07:25:17;;;;;;;6.33;5.58;;;;;;;25.74;52.41;99915.16;1856439;77;21086;-77
2022/07/04 07:27:44;;;;;;;7.78;4.90;;;;;;;25.80;51.87;99916.81;1821994;77;21832;-80
2022/07/04 07:30:11;;;;;;;9.30;6.28;;;;;;;25.83;51.74;99917.10;1847308;77;21015;-78
2022/07/04 07:32:38;;;;;;;6.97;5.25;;;;;;;25.88;51.89;99914.94;1849395;77;21028;-78
2022/07/04 07:35:05;;;;;;;5.55;5.05;;;;;;;25.94;52.02;99920.73;1817710;77;21529;-77
2022/07/04 07:37:32;;;;;;;5.70;5.10;;;;;;;26.03;50.91;99916.94;1857569;77;21036;-80
2022/07/04 07:39:59;;;;;;;8.40;4.95;;;;;;;26.03;50.80;99916.39;1842312;77;21159;-77
2022/07/04 07:42:25;;;;;;;8.18;5.42;;;;;;;26.05;50.57;99909.33;1857351;75;20957;-79
2022/07/04 07:44:51;;;;;;;6.75;5.80;;;;;;;26.09;50.64;99899.53;1853755;77;20982;-80
2022/07/04 07:47:18;;;;;;;6.30;5.30;;;;;;;26.18;50.44;99910.75;1846994;75;21076;-79
2022/07/04 07:49:47;;;;;;;8.73;5.50;;;;;;;26.25;50.88;99903.96;1844717;77;21021;-79
2022/07/04 07:52:13;;;;;;;5.72;5.00;;;;;;;26.33;50.42;99909.95;1843498;77;22137;-80
2022/07/04 07:54:39;;;;;;;6.37;5.50;;;;;;;26.39;49.70;99917.87;1852017;77;21037;-77
2022/07/04 07:57:06;;;;;;;6.12;5.62;;;;;;;26.41;49.50;99911.62;1842944;77;21071;-78
2022/07/04 07:59:33;;;;;;;6.65;5.90;;;;;;;26.47;49.76;99907.81;1840998;75;20997;-80
2022/07/04 08:01:59;;;;;;;8.13;6.22;;;;;;;26.57;49.83;99903.48;1853820;75;21477;-79
2022/07/04 08:04:35;;;;;;;6.33;5.12;;;;;;;26.66;49.65;99905.98;1853588;77;21498;-78
2022/07/04 08:07:08;;;;;;;6.90;5.45;;;;;;;26.77;49.26;99909.52;1848252;75;21046;-78
2022/07/04 08:09:35;;;;;;;6.83;5.15;;;;;;;26.88;49.19;99902.42;1853029;77;21388;-77
2022/07/04 08:12:05;;;;;;;8.15;5.05;;;;;;;26.96;49.03;99898.34;1850528;75;21042;-78
2022/07/04 08:14:32;;;;;;;7.45;5.58;;;;;;;27.05;49.31;99898.62;1842972;77;21014;-76
2022/07/04 08:17:00;;;;;;;5.40;4.90;;;;;;;27.14;48.64;99902.96;1807637;77;20998;-77
2022/07/04 08:19:26;;;;;;;7.22;5.35;;;;;;;27.19;48.82;99903.78;1845635;77;21052;-75
2022/07/04 08:21:53;;;;;;;5.50;5.00;;;;;;;27.26;48.11;99895.36;1841758;75;21112;-78
2022/07/04 08:24:20;;;;;;;6.40;5.30;;;;;;;27.31;48.36;99893.97;1831233;77;21130;-79
2022/07/04 08:26:47;;;;;;;6.70;5.12;;;;;;;27.34;47.92;99891.26;1838528;77;22141;-79
2022/07/04 08:29:19;;;;;;;17.35;6.65;;;;;;;27.35;47.90;99890.98;1834075;77;21047;-76
2022/07/04 08:31:46;;;;;;;6.35;5.03;;;;;;;27.38;48.01;99890.97;1834081;77;21029;-79
2022/07/04 08:34:13;;;;;;;7.17;5.40;;;;;;;27.45;48.16;99892.32;1838685;77;20982;-80
2022/07/04 08:36:40;;;;;;;7.35;5.25;;;;;;;27.53;48.12;99893.66;1814819;77;21014;-78
2022/07/04 08:39:06;;;;;;;5.92;4.53;;;;;;;27.58;47.70;99889.56;1832513;77;21024;-77
2022/07/04 08:41:37;;;;;;;6.83;4.70;;;;;;;27.67;47.25;99891.72;1835932;77;21116;-80
2022/07/04 08:44:10;;;;;;;6.67;4.70;;;;;;;27.75;46.31;99887.84;1824147;77;21499;-80
2022/07/04 08:46:41;;;;;;;4.65;4.30;;;;;;;27.83;45.61;99891.92;1816901;77;21022;-78
2022/07/04 08:49:22;;;;;;;9.80;4.15;;;;;;;27.91;45.24;99887.30;1829961;77;21301;-80
2022/07/04 08:52:04;;;;;;;4.83;4.42;;;;;;;28.02;44.53;99883.39;1812318;77;21045;-79
2022/07/04 09:00:05;;;;;;;5.20;4.37;;;;;;;28.47;44.37;99880.67;1832519;77;21061;-78
2022/07/04 09:02:31;;;;;;;7.60;4.25;;;;;;;28.59;44.55;99882.55;1841986;77;21104;-79
2022/07/04 09:04:58;;;;;;;5.90;4.40;;;;;;;28.76;44.29;99880.78;1826352;77;21092;-81
2022/07/04 09:07:26;;;;;;;5.80;4.30;;;;;;;28.93;43.77;99883.08;1812420;78;21518;-81
2022/07/04 09:09:53;;;;;;;7.87;4.40;;;;;;;29.10;43.79;99884.59;1807704;77;21065;-80
2022/07/04 09:12:19;;;;;;;6.10;4.22;;;;;;;29.29;43.92;99891.55;1790145;78;21009;-83
2022/07/04 09:14:46;;;;;;;4.95;4.20;;;;;;;29.43;43.19;99885.64;1817722;77;21030;-82
2022/07/04 09:17:12;;;;;;;5.62;3.98;;;;;;;29.57;42.57;99892.08;1796942;77;21104;-84
2022/07/04 09:19:39;;;;;;;5.70;4.03;;;;;;;29.71;42.37;99885.88;1818761;77;21116;-78
2022/07/04 09:22:12;;;;;;;4.60;4.20;;;;;;;29.78;42.11;99884.44;1816916;77;20981;-79
2022/07/04 09:24:47;;;;;;;4.55;4.03;;;;;;;29.81;41.95;99874.84;1844757;77;21134;-80
2022/07/04 09:27:34;;;;;;;5.28;4.70;;;;;;;29.94;41.30;99877.40;1848743;75;21017;-81
2022/07/04 09:30:01;;;;;;;4.58;4.17;;;;;;;30.16;41.36;99872.17;1854377;75;21033;-81
2022/07/04 09:32:38;;;;;;;5.12;4.10;;;;;;;30.51;41.41;99870.05;1857225;76;21249;-78
2022/07/04 09:35:19;;;;;;;4.30;3.90;;;;;;;30.99;40.31;99870.39;1833616;77;21009;-78
2022/07/04 09:37:49;;;;;;;4.22;3.45;;;;;;;31.55;37.63;99878.97;1834918;77;20981;-78
2022/07/04 09:40:25;;;;;;;5.05;3.75;;;;;;;31.97;36.68;99871.25;1842454;75;21006;-78
2022/07/04 09:42:53;;;;;;;4.35;3.95;;;;;;;32.31;36.39;99877.66;1856087;77;21013;-79
2022/07/04 09:45:23;;;;;;;4.35;3.98;;;;;;;32.60;36.18;99875.10;1854052;77;21636;-76
2022/07/04 09:47:48;;;;;;;5.53;4.03;;;;;;;32.74;35.70;99868.16;1856700;75;21032;-77
2022/07/04 09:50:18;;;;;;;5.28;4.58;;;;;;;32.94;36.37;99866.84;1842080;77;21017;-76
2022/07/04 09:52:53;;;;;;;5.17;4.33;;;;;;;33.29;36.58;99869.23;1855545;77;21061;-76
2022/07/04 09:55:28;;;;;;;5.78;3.92;;;;;;;33.77;36.03;99867.65;1836465;77;21049;-77
2022/07/04 09:58:02;;;;;;;3.70;3.37;;;;;;;34.36;33.94;99865.86;1854270;77;21204;-78
2022/07/04 10:00:37;;;;;;;4.00;3.70;;;;;;;35.01;32.14;99863.44;1858560;77;21021;-78
2022/07/04 10:03:26;;;;;;;4.50;4.10;;;;;;;35.60;32.26;99849.48;1858135;77;20985;-80
2022/07/04 10:06:05;;;;;;;3.25;2.95;;;;;;;36.07;31.90;99863.20;1840886;77;21027;-78
2022/07/04 10:08:33;;;;;;;3.52;3.25;;;;;;;36.64;29.83;99855.42;1852276;77;21536;-80
2022/07/04 10:11:01;;;;;;;3.90;3.50;;;;;;;36.82;28.95;99854.13;1842009;77;21097;-80
2022/07/04 10:13:27;;;;;;;4.15;3.27;;;;;;;36.78;29.60;99854.00;1843725;75;21049;-79
2022/07/04 10:15:54;;;;;;;4.28;3.20;;;;;;;37.03;29.84;99851.84;1857111;77;21141;-79
2022/07/04 10:18:22;;;;;;;3.83;3.30;;;;;;;37.35;29.45;99837.72;1840798;77;21603;-80
2022/07/04 10:20:49;;;;;;;4.35;3.50;;;;;;;37.61;29.44;99836.02;1828927;77;21036;-78
2022/07/04 10:23:17;;;;;;;4.28;3.70;;;;;;;37.90;29.84;99835.48;1846651;77;21197;-78
2022/07/04 10:25:48;;;;;;;5.20;3.67;;;;;;;38.13;29.42;99841.34;1828372;77;21042;-78
2022/07/04 10:28:18;;;;;;;4.33;3.50;;;;;;;38.34;28.66;99830.06;1840892;77;26467;-77
2022/07/04 10:30:52;;;;;;;3.87;3.47;;;;;;;38.65;28.59;99834.91;1814666;77;21014;-80
2022/07/04 10:33:25;;;;;;;3.75;3.20;;;;;;;38.94;28.48;99828.16;1823889;77;21031;-79
2022/07/04 10:36:02;;;;;;;4.10;3.70;;;;;;;39.20;28.41;99830.20;1814460;79;21663;-81
2022/07/04 10:38:32;;;;;;;4.42;3.72;;;;;;;39.51;28.28;99823.81;1836791;77;20986;-77
2022/07/04 10:41:07;;;;;;;5.53;4.05;;;;;;;39.66;28.19;99824.36;1827738;77;21085;-80
2022/07/04 10:43:43;;;;;;;4.12;3.72;;;;;;;39.58;28.48;99816.21;1819017;77;21033;-81
2022/07/04 10:46:24;;;;;;;3.72;3.42;;;;;;;39.84;27.98;99822.56;1839918;77;21493;-80
2022/07/04 10:48:57;;;;;;;3.70;3.40;;;;;;;40.02;27.47;99823.76;1837915;77;21733;-81
2022/07/04 10:51:51;;;;;;;3.90;3.60;;;;;;;39.64;28.05;99816.14;1818956;77;21014;-81
2022/07/04 10:54:32;;;;;;;4.42;3.52;;;;;;;39.49;28.07;99806.11;1830078;76;21516;-84
2022/07/04 10:57:17;;;;;;;7.85;4.20;;;;;;;39.90;27.48;99805.84;1842852;76;21567;-85
2022/07/04 11:00:01;;;;;;;3.85;3.55;;;;;;;40.32;26.91;99809.30;1845007;77;21064;-85
2022/07/04 11:02:35;;;;;;;5.22;4.40;;;;;;;40.68;26.26;99822.48;1839003;77;21131;-84
2022/07/04 11:05:07;;;;;;;5.75;3.90;;;;;;;40.83;26.49;99807.67;1847540;77;20994;-83
2022/07/04 11:07:44;;;;;;;4.28;3.87;;;;;;;41.16;26.42;99805.42;1818740;77;21123;-86
2022/07/04 11:12:59;;;;;;;4.25;3.85;;;;;;;41.56;26.11;99803.47;1836787;76;20995;-83
2022/07/04 11:15:29;;;;;;;;;;;;;;;41.64;26.17;99801.61;1830020;77;21108;-84
2022/07/04 11:18:03;;;;;;;6.58;4.08;;;;;;;42.01;25.78;99794.71;1847271;77;20171;-84
2022/07/04 11:20:47;;;;;;;5.00;4.20;;;;;;;42.26;25.77;99793.44;1830240;77;21019;-84
2022/07/04 11:23:24;;;;;;;4.55;4.15;;;;;;;42.49;25.90;99793.31;1812517;77;21103;-85
2022/07/04 11:26:28;;;;;;;4.42;4.03;;;;;;;42.52;25.65;99788.34;1822265;77;21061;-88
2022/07/04 11:29:15;;;;;;;4.53;4.17;;;;;;;42.70;25.77;99794.12;1803337;78;21041;-84
2022/07/04 11:31:55;;;;;;;5.10;4.65;;;;;;;42.92;25.61;99782.55;1845480;77;21502;-82
2022/07/04 11:34:33;;;;;;;4.58;4.17;;;;;;;43.01;25.67;99778.84;1836746;77;21065;-82
2022/07/04 11:39:53;;;;;;;5.12;4.53;;;;;;;42.76;25.79;99782.19;1695835;80;21048;-85
2022/07/04 11:45:17;;;;;;;4.72;4.30;;;;;;;42.20;26.46;99775.63;1831009;77;21080;-86
2022/07/04 11:47:44;;;;;;;4.80;4.40;;;;;;;41.94;26.39;99772.90;1839474;77;21113;-85
2022/07/04 11:50:18;;;;;;;5.78;4.60;;;;;;;41.55;26.74;99759.23;1841087;77;21056;-85
2022/07/04 11:52:53;;;;;;;7.05;4.87;;;;;;;41.49;27.19;99754.58;1851580;77;21049;-81
2022/07/04 11:55:21;;;;;;;5.05;4.55;;;;;;;41.84;27.45;99756.25;1792589;78;21056;-80
2022/07/04 11:57:54;;;;;;;6.37;4.87;;;;;;;42.22;26.49;99755.72;1839641;77;21528;-81
2022/07/04 12:00:28;;;;;;;6.78;4.35;;;;;;;41.93;26.55;99751.19;1843735;76;21481;-79
2022/07/04 12:03:00;;;;;;;4.70;4.33;;;;;;;40.73;28.39;99752.58;1830745;77;21620;-81